Flight Track Log - Related Links

Times and Time Zones

All times are in EST time to prevent confusion due to time zone crossing. See the EGF2787 flight status page for this flight to view local times or setup timezone preferences in your user account.

Time Position Orientation Groundspeed Altitude Reporting Facility
EST Latitude Longitude Course Direction KTS MPH feet Rate Location/Type
Fri 07:40:27 AM 40.4417 -88.9419 221° Southwest 180 207 2,200  Level Kansas City Center
Fri 07:41:26 AM 40.4003 -89.0014 228° Southwest 217 250 4,400 2,213 Climbing Kansas City Center
Fri 07:42:29 AM 40.3506 -89.0625 223° Southwest 229 264 6,700 2,419 Climbing Kansas City Center
Fri 07:43:00 AM 40.2410 -89.1847 237° Southwest  Level FlightAware Approximate
Fri 07:43:30 AM 40.2869 -89.1350 221° Southwest 244 281 9,400  Level Kansas City Center
Fri 07:44:00 AM 40.1805 -89.2532 221° Southwest  Level FlightAware Approximate
Fri 07:44:30 AM 40.2308 -89.2006 222° Southwest 263 303 10,500  Level Kansas City Center
Fri 07:45:00 AM 40.1194 -89.3221 221° Southwest  Level FlightAware Approximate
Fri 07:45:28 AM 40.1672 -89.2778 223° Southwest 300 345 11,600  Level Kansas City Center
Fri 07:46:29 AM 40.1006 -89.3567 222° Southwest 317 365 12,600 984 Climbing Kansas City Center
Fri 07:47:30 AM 40.0322 -89.4375 222° Southwest 327 376 13,600 1,113 Climbing Kansas City Center
Fri 07:48:33 AM 39.9631 -89.5197 222° Southwest 334 384 14,900 1,317 Climbing Kansas City Center
Fri 07:49:33 AM 39.8964 -89.5969 222° Southwest 325 374 16,300 1,328 Climbing Kansas City Center
Fri 07:50:35 AM 39.8306 -89.6753 222° Southwest 320 368 17,600 1,091 Climbing Kansas City Center
Fri 07:51:34 AM 39.7650 -89.7494 221° Southwest 315 362 18,500 900 Climbing Kansas City Center
Fri 07:52:35 AM 39.7036 -89.8225 222° Southwest 316 364 19,400 950 Climbing Kansas City Center
Fri 07:53:34 AM 39.6372 -89.8997 222° Southwest 321 369 20,400 976 Climbing Kansas City Center
Fri 07:54:38 AM 39.5686 -89.9789 222° Southwest 327 376 21,400 984 Climbing Kansas City Center
Fri 07:55:36 AM 39.4997 -90.0578 221° Southwest 330 380 22,400 942 Climbing Kansas City Center
Fri 07:56:39 AM 39.4306 -90.1375 222° Southwest 333 383 23,300 1,041 Climbing Kansas City Center
Fri 07:57:37 AM 39.3486 -90.2333 222° Southwest 332 382 24,500 1,033 Climbing Kansas City Center
Fri 07:58:41 AM 39.2797 -90.3108 221° Southwest 331 381 25,400 919 Climbing Kansas City Center
Fri 07:59:41 AM 39.2108 -90.3897 222° Southwest 332 382 26,400 942 Climbing Kansas City Center
Fri 08:00:42 AM 39.1428 -90.4683 222° Southwest 331 381 27,300 934 Climbing Kansas City Center
Fri 08:01:43 AM 39.0747 -90.5447 221° Southwest 328 377 28,300 992 Climbing Kansas City Center
Fri 08:02:43 AM 39.0083 -90.6197 221° Southwest 323 372 29,300 950 Climbing Kansas City Center
Fri 08:03:43 AM 38.9436 -90.6922 221° Southwest 314 361 30,200 950 Climbing Kansas City Center
Fri 08:04:43 AM 38.8783 -90.7681 222° Southwest 316 364 31,200 942 Climbing Kansas City Center
Fri 08:05:44 AM 38.8131 -90.8406 221° Southwest 315 362 32,100 919 Climbing Kansas City Center
Fri 08:06:47 AM 38.7481 -90.9128 221° Southwest 313 360 33,100 984 Climbing Kansas City Center
Fri 08:07:46 AM 38.6853 -90.9836 221° Southwest 308 354 34,100 1,041 Climbing Kansas City Center
Fri 08:08:48 AM 38.6181 -91.0753 227° Southwest 299 344 35,200 942 Climbing Kansas City Center
Fri 08:09:47 AM 38.5644 -91.1492 227° Southwest 290 334 36,000 400 Climbing Kansas City Center
Fri 08:10:48 AM 38.5089 -91.2242 227° Southwest 290 334 36,000  Level Kansas City Center
Fri 08:11:49 AM 38.4497 -91.3036 226° Southwest 304 350 36,000  Level Kansas City Center
Fri 08:12:52 AM 38.3828 -91.3919 226° Southwest 317 365 36,000  Level Kansas City Center
Fri 08:13:53 AM 38.3214 -91.4753 227° Southwest 321 369 36,000  Level Kansas City Center
Fri 08:14:54 AM 38.2592 -91.5572 226° Southwest 320 368 36,000  Level Kansas City Center
Fri 08:15:54 AM 38.1958 -91.6400 226° Southwest 323 372 36,000  Level Kansas City Center
Fri 08:16:53 AM 38.1325 -91.7222 226° Southwest 322 371 36,000  Level Kansas City Center
Fri 08:17:56 AM 38.0703 -91.8053 226° Southwest 322 371 36,000  Level Kansas City Center
Fri 08:18:55 AM 38.0075 -91.8881 226° Southwest 322 371 36,000  Level Kansas City Center
Fri 08:19:56 AM 37.9442 -91.9708 226° Southwest 323 372 36,000  Level Kansas City Center
Fri 08:20:59 AM 37.8808 -92.0556 227° Southwest 325 374 36,000  Level Kansas City Center
Fri 08:21:59 AM 37.8153 -92.1406 226° Southwest 325 374 36,000  Level Kansas City Center
Fri 08:22:58 AM 37.7514 -92.2225 225° Southwest 327 376 36,000  Level Kansas City Center
Fri 08:23:59 AM 37.6878 -92.3056 226° Southwest 329 379 36,000  Level Kansas City Center
Fri 08:25:02 AM 37.6236 -92.3900 226° Southwest 327 376 36,000  Level Kansas City Center
Fri 08:26:02 AM 37.5589 -92.4733 226° Southwest 328 377 36,000  Level Kansas City Center
Fri 08:27:01 AM 37.4950 -92.5561 226° Southwest 329 379 36,000  Level Kansas City Center
Fri 08:28:05 AM 37.4317 -92.6392 226° Southwest 328 377 36,000  Level Kansas City Center
Fri 08:29:06 AM 37.3656 -92.7197 224° Southwest 328 377 36,000  Level Kansas City Center
Fri 08:30:07 AM 37.3028 -92.8019 226° Southwest 326 375 36,000  Level Kansas City Center
Fri 08:31:05 AM 37.2386 -92.8842 226° Southwest 327 376 36,000  Level Kansas City Center
Fri 08:32:07 AM 37.1733 -92.9661 225° Southwest 328 377 36,000  Level Kansas City Center
Fri 08:33:10 AM 37.1072 -93.0456 224° Southwest 328 377 36,000  Level Kansas City Center
Fri 08:34:10 AM 37.0233 -93.1075 211° Southwest 343 395 36,000  Level Kansas City Center
Fri 08:35:12 AM 36.9408 -93.1694 211° Southwest 344 396 36,000  Level Kansas City Center
Fri 08:36:10 AM 36.8628 -93.2317 213° Southwest 346 398 36,000  Level Kansas City Center
Fri 08:37:12 AM 36.7831 -93.2972 213° Southwest 344 396 36,000  Level Kansas City Center
Fri 08:38:13 AM 36.6847 -93.3747 212° Southwest 348 400 36,000  Level Kansas City Center
Fri 08:39:16 AM 36.6044 -93.4417 214° Southwest 348 400 36,000  Level Kansas City Center
Fri 08:40:17 AM 36.5219 -93.5072 213° Southwest 351 404 36,000  Level Kansas City Center
Fri 08:41:17 AM 36.4397 -93.5722 212° Southwest 351 404 36,000  Level Kansas City Center
Fri 08:42:26 AM 36.3408 -93.6522 213° Southwest 352 405 36,000  Level Memphis Center
Fri 08:43:28 AM 36.2583 -93.7181 213° Southwest 353 406 36,000  Level Memphis Center
Fri 08:44:29 AM 36.1756 -93.7825 212° Southwest 354 407 36,000  Level Memphis Center
Fri 08:45:31 AM 36.0925 -93.8478 212° Southwest 354 407 36,000  Level Memphis Center
Fri 08:46:33 AM 36.0089 -93.9133 212° Southwest 355 409 36,000  Level Memphis Center
Fri 08:47:34 AM 35.9247 -93.9794 212° Southwest 357 411 36,000  Level Memphis Center
Fri 08:48:36 AM 35.8222 -94.0589 212° Southwest 358 412 36,000  Level Memphis Center
Fri 08:49:38 AM 35.7361 -94.1256 212° Southwest 361 415 36,000  Level Memphis Center
Fri 08:50:40 AM 35.6506 -94.1922 212° Southwest 362 417 36,000  Level Memphis Center
Fri 08:51:41 AM 35.5686 -94.2547 212° Southwest 361 415 36,000  Level Memphis Center
Fri 08:52:43 AM 35.4833 -94.3208 212° Southwest 363 418 36,000  Level Memphis Center
Fri 08:53:45 AM 35.3931 -94.3897 212° Southwest 362 417 36,000  Level Memphis Center
Fri 08:54:46 AM 35.2947 -94.4656 212° Southwest 366 421 36,000  Level Memphis Center
Fri 08:55:48 AM 35.2083 -94.5317 212° Southwest 367 422 36,000  Level Memphis Center
Fri 08:56:50 AM 35.1228 -94.5975 212° Southwest 366 421 36,000  Level Memphis Center
Fri 08:57:51 AM 35.0278 -94.6689 212° Southwest 367 422 36,000  Level Memphis Center
Fri 08:58:53 AM 34.9500 -94.7475 220° Southwest 363 418 36,000  Level Memphis Center
Fri 08:59:55 AM 34.8756 -94.8289 222° Southwest 361 415 36,000  Level Memphis Center
Fri 09:00:57 AM 34.8067 -94.9031 221° Southwest 360 414 36,000 -242 Level Memphis Center
Fri 09:01:59 AM 34.7247 -94.9906 221° Southwest 359 413 35,500 -732 Descending Memphis Center
Fri 09:03:00 AM 34.6511 -95.0697 222° Southwest 356 410 34,500 -976 Descending Memphis Center
Fri 09:04:02 AM 34.5803 -95.1447 221° Southwest 345 397 33,500 -1,016 Descending Memphis Center
Fri 09:05:04 AM 34.4978 -95.2339 222° Southwest 355 409 32,400 -993 Descending Memphis Center
Fri 09:06:27 AM 34.3786 -95.3122 208° Southwest 390 449 31,100 -1,000 Descending Fort Worth Center
Fri 09:07:28 AM 34.2622 -95.2931 172° South 421 484 30,000 -1,122 Descending Fort Worth Center
Fri 09:08:30 AM 34.1289 -95.2931 180° South 404 465 28,800 -1,065 Descending Fort Worth Center
Fri 09:09:32 AM 34.0478 -95.3633 216° Southwest 379 436 27,800 -968 Descending Fort Worth Center
Fri 09:10:34 AM 33.9900 -95.4597 234° Southwest 363 418 26,800 -1,016 Descending Fort Worth Center
Fri 09:11:36 AM 33.9361 -95.5528 235° Southwest 346 398 25,700 -968 Descending Fort Worth Center
Fri 09:12:38 AM 33.8878 -95.6358 235° Southwest 309 356 24,800 -829 Descending Fort Worth Center
Fri 09:13:39 AM 33.8336 -95.7303 235° Southwest 289 333 24,000 -683 Descending Fort Worth Center
Fri 09:14:41 AM 33.7856 -95.8117 235° Southwest 297 342 23,400 -677 Descending Fort Worth Center
Fri 09:15:43 AM 33.7314 -95.9025 234° Southwest 307 353 22,600 -1,355 Descending Fort Worth Center
Fri 09:16:45 AM 33.6917 -95.9908 242° Southwest 304 350 20,600 -1,887 Descending Fort Worth Center
Fri 09:17:47 AM 33.6539 -96.0694 240° Southwest 279 321 18,700 -1,984 Descending Fort Worth Center
Fri 09:18:49 AM 33.6006 -96.1411 228° Southwest 268 308 16,500 -2,032 Descending Fort Worth Center
Fri 09:19:51 AM 33.5561 -96.2089 232° Southwest 260 299 14,500 -1,902 Descending Fort Worth Center
Fri 09:20:52 AM 33.5083 -96.2708 227° Southwest 255 293 12,600 -1,707 Descending Fort Worth Center
Fri 09:21:54 AM 33.4550 -96.3328 224° Southwest 250 288 11,000 -774 Descending Fort Worth Center
Fri 09:22:56 AM 33.4042 -96.3925 224° Southwest 255 293 11,000 -290 Level Fort Worth Center
Fri 09:23:58 AM 33.3597 -96.4669 234° Southwest 252 290 10,400 -1,016 Descending Fort Worth Center
Fri 09:25:00 AM 33.3275 -96.5408 242° Southwest 251 289 8,900 -1,452 Descending Fort Worth Center
Fri 09:26:02 AM 33.2969 -96.6125 243° Southwest 243 280 7,400 -1,500 Descending Fort Worth Center
Fri 09:27:04 AM 33.2728 -96.6908 250° West 239 275 5,800 -1,171 Descending Fort Worth Center
Fri 09:28:05 AM 33.2692 -96.7722 267° West 246 283 5,000 -390 Descending Fort Worth Center
Fri 09:29:07 AM 33.2628 -96.8581 265° West 242 278 5,000 -48 Level Fort Worth Center
Fri 09:30:09 AM 33.2303 -96.9311 242° Southwest 254 292 4,900 -484 Descending Fort Worth Center
Fri 09:31:11 AM 33.1789 -96.9864 222° Southwest 240 276 4,000 -435 Descending Fort Worth Center
Fri 09:32:13 AM 33.1231 -97.0167 204° Southwest 223 257 4,000 -214 Level Fort Worth Center
Fri 09:33:03 AM 33.0667 -97.0167 180° South 210 242 3,600 -764 Descending Dallas / Fort Worth TRACON
Fri 09:34:03 AM 33.0167 -97.0167 180° South 194 223 2,600 -912 Descending Dallas / Fort Worth TRACON
Fri 09:35:08 AM 32.9667 -97.0167 180° South 140 161 1,700 -768 Descending Dallas / Fort Worth TRACON
Fri 09:36:08 AM 32.9333 -97.0167 180° South 137 158 1,000 -700 Descending Dallas / Fort Worth TRACON

Login

Don't have an account? Register now (free) for customized features, flight alerts, and more!